Elmore, MN (56027)

1:10 AM CDT on April 26, 2017 (GMT -0500)
Newman 1 | | Change Station

Elev 1155 ft 43.48 °N, 94.01 °W | Updated 4 seconds ago

Rain
Rain
45.9 °F
Feels Like 40 °F
N
11.4
Wind Variable Wind from WNW

Today
High -- | Low -- °F
--% Chance of Precip.
Yesterday
High -- | Low -- °F
Precip. -- in
Pressure 29.53 in
Visibility 7.0 miles
Clouds Overcast 300 ft
Windchill 40 °F
Dew Point 46 °F
Humidity 99%
Rainfall 0.00 in
Snow Depth Not available.
6:15 AM 8:13 PM
Waning Crescent, 0% visible
METAR KFRM 260556Z AUTO 33018KT 7SM -RA OVC003 06/06 A2950 RMK AO2 SLP999 P0000 60020 T00610056 10072 20061 401560044 57015
Pressure 29.53 in
Visibility 7.0 miles
Clouds Overcast 300 ft
Windchill 40 °F
Dew Point 46 °F
Humidity 99%
Rainfall 0.00 in
Snow Depth Not available.
6:15 AM 8:13 PM
Waning Crescent, 0% visible
METAR KFRM 260556Z AUTO 33018KT 7SM -RA OVC003 06/06 A2950 RMK AO2 SLP999 P0000 60020 T00610056 10072 20061 401560044 57015

Get Severe Weather Alerts

Thanks for signing up!

Be on the lookout for a verification email in your inbox.

You'll start receiving the daily forecast at 8 AM.

×

10-Day Weather Forecast

Almanac

Astronomy

Apr. 26, 2017 Rise Set
Actual Time
Civil Twilight
Nautical Twilight
Astronomical Twilight
Moon
Length of Visible Light
Length of Day
Tomorrow will be .
, % of the Moon is Illuminated

Today's Extremes

State Highs State Lows

Community

WunderPhotos

WunderBlog® & News

Nearby

Air Quality

  Air Quality AQ Index Pollutant
Not available.

Snow Depth

Station Depth Elevation

Earthquake Activity

City Distance Mag. Time & Date
Minimum magnitude displayed is 2.5.

Coastal Water Temperatures

Place Temperature

Stations

Nearby Weather Stations

Station Location Temp. Windchill Dew Point Humidity Wind Precip. Elev Updated Type
                   

Watches & Warnings

There are currently no watches in effect.